Terminal Aerodrome Forecast
Issued by NWS

Current Version | Previous Version | Text Only | Print | Product List | Glossary On
Versions: 1 2 3 4 5 6 7 8 9 10 11 12
211
FTUS46 KMFR 251140
TAFLMT
TAF
KLMT 251140Z 2512/2612 34006KT P6SM SKC
     FM252300 32012G18KT P6SM FEW070
     FM260400 31004KT P6SM SKC=

USA.gov is the U.S. government's official web portal to all federal, state and local government web resources and services.